Página principal
METAR-TAF:

METAR-TAF

Aeroportos :

El Hierro, Espanha

latitude: 27-49N, longitude: 017-53W, altura: 32 m

Observação actual do tempo

O boletim foi feito há 13 minutos, às 21:30 UTC
Vento 12 kt de norte
Temperatura 18°C
Humidade 77%
Pressão 1023 hPa
Visibilidade 10 km ou mais

METAR: GCHI 172130Z AUTO 36012KT 9999 BKN027/// BKN032/// 18/14 Q1023

Hora: 21:43 (21:43 UTC)

Previsão

O boletim foi feito há 1 hora e 43 minutos, às 20:00 UTC
Previsão válida de 17 às 21 UTC a 18 às 21 UTC
Vento 11 kt de norte
Visibilidade 10 km ou mais
Poucas nuvensa uma altura de 2500 ft
Probabilidade 40% :
Temporariamente
de 18 às 07 UTC a 18 às 12 UTC
chuva

TAF: GCHI 172000Z 1721/1821 35011KT 9999 FEW025 TX20/1814Z TN17/1806Z PROB40 TEMPO 1807/1812 RA

Observações e previsões do tempo de mais de 4000 aeroportos (mensagens METAR e TAF).

As estações disponíveis são os pontos amarelos e vermelhos sobre o mapa.

Mova o rato sobre o mapa para ver o nome da estação.

Depois clique no ponto para visualizar as observações e previsões meteorológicas.

Para alterar o mapa : clique nos botões verdes com uma cruz preta para aumentar o zoom; no botão verde com uma pitada de zoom; ou nas setas verdes para mapas adjacentes.


METAR-TAF: